Time;durP1;ratioP1;P1;durP2;ratioP2;P2;SDS_P1;SDS_P2;PMS_P1;PMS_P2;Temp;Humidity;BMP_temperature;BMP_pressure;BME280_temperature;BME280_humidity;BME280_pressure;Samples;Min_cycle;Max_cycle;Signal;HPM_P1;HPM_P2
2021/12/24 00:02:24;;;;;;;60.95;30.27;;;0.80;99.90;;;;;;5074487;28;20023;-73
2021/12/24 00:04:50;;;;;;;54.10;28.60;;;0.90;99.90;;;;;;5074598;28;20032;-73
2021/12/24 00:07:16;;;;;;;57.22;29.70;;;0.90;99.90;;;;;;5074441;28;20028;-73
2021/12/24 00:09:41;;;;;;;58.13;30.83;;;0.90;99.90;;;;;;5074145;28;20016;-72
2021/12/24 00:12:14;;;;;;;59.10;28.70;;;0.90;99.90;;;;;;5074381;28;20070;-73
2021/12/24 00:14:44;;;;;;;63.10;30.07;;;0.90;99.90;;;;;;5056460;28;20024;-73
2021/12/24 00:17:14;;;;;;;69.10;30.77;;;0.90;99.90;;;;;;5073923;28;20013;-72
2021/12/24 00:19:48;;;;;;;65.80;31.88;;;0.90;99.90;;;;;;5074031;28;20040;-73
2021/12/24 00:35:53;;;;;;;95.65;33.22;;;0.80;99.90;;;;;;5073893;28;20036;-72
2021/12/24 00:38:19;;;;;;;92.55;35.17;;;0.80;99.90;;;;;;5073802;28;20032;-73
2021/12/24 00:40:46;;;;;;;82.75;36.15;;;0.70;99.90;;;;;;5055758;28;20039;-73
2021/12/24 00:43:14;;;;;;;116.72;34.22;;;0.80;99.90;;;;;;5073740;28;20029;-73
2021/12/24 00:45:42;;;;;;;106.93;34.75;;;0.80;99.90;;;;;;5073678;28;20025;-72
2021/12/24 00:48:11;;;;;;;138.77;35.40;;;0.80;99.90;;;;;;5073606;28;20033;-73
2021/12/24 00:50:53;;;;;;;101.45;36.00;;;0.80;99.90;;;;;;5073447;28;20103;-72
2021/12/24 00:56:03;;;;;;;94.68;37.13;;;0.80;99.90;;;;;;5073778;28;20019;-73
2021/12/24 00:58:29;;;;;;;99.50;35.78;;;0.80;99.90;;;;;;5072893;28;20025;-73
2021/12/24 01:00:54;;;;;;;130.07;39.13;;;0.80;99.90;;;;;;5061136;28;20024;-73
2021/12/24 01:03:20;;;;;;;145.05;38.05;;;0.80;99.90;;;;;;5073448;28;20047;-73
2021/12/24 01:05:46;;;;;;;109.60;39.03;;;0.80;99.90;;;;;;5061767;28;20035;-72
2021/12/24 01:08:14;;;;;;;117.40;36.92;;;0.80;99.90;;;;;;5073200;28;20028;-73
2021/12/24 01:10:47;;;;;;;190.25;41.40;;;0.80;99.90;;;;;;5073134;28;20071;-73
2021/12/24 01:13:13;;;;;;;123.18;38.55;;;0.70;99.90;;;;;;5073136;28;20480;-73
2021/12/24 01:15:50;;;;;;;179.77;43.20;;;0.70;99.90;;;;;;5073054;28;20036;-73
2021/12/24 01:18:20;;;;;;;165.80;41.58;;;0.70;99.90;;;;;;5055101;28;20029;-73
2021/12/24 01:20:50;;;;;;;140.70;39.78;;;0.70;99.90;;;;;;5073069;28;20601;-72
2021/12/24 01:23:38;;;;;;;144.23;39.05;;;0.70;99.90;;;;;;5073015;28;20037;-73
2021/12/24 01:26:11;;;;;;;104.20;34.45;;;0.80;99.90;;;;;;5072923;28;20083;-73
2021/12/24 01:28:59;;;;;;;109.97;37.25;;;0.70;99.90;;;;;;5072879;28;20017;-73
2021/12/24 01:40:05;;;;;;;123.93;36.80;;;0.80;99.90;;;;;;5072943;28;20027;-73
2021/12/24 01:42:46;;;;;;;102.00;34.63;;;0.70;99.90;;;;;;5072798;28;20024;-73
2021/12/24 01:45:25;;;;;;;131.27;38.30;;;0.80;99.90;;;;;;5072756;28;20066;-73
2021/12/24 01:47:54;;;;;;;113.70;38.72;;;0.80;99.90;;;;;;5072699;28;20016;-73
2021/12/24 01:50:21;;;;;;;125.43;36.65;;;0.80;99.90;;;;;;5072524;28;20067;-73
2021/12/24 01:52:49;;;;;;;105.65;37.00;;;0.80;99.90;;;;;;5068747;28;20023;-73
2021/12/24 01:55:16;;;;;;;107.00;37.05;;;0.80;99.90;;;;;;5072525;28;20016;-73
2021/12/24 01:57:42;;;;;;;101.75;36.53;;;0.90;99.90;;;;;;5072419;28;20409;-73
2021/12/24 02:00:11;;;;;;;134.77;36.85;;;0.90;99.90;;;;;;5072361;28;20465;-73
2021/12/24 02:02:37;;;;;;;112.20;37.22;;;0.80;99.90;;;;;;5072455;28;20107;-73
2021/12/24 02:05:03;;;;;;;124.13;40.25;;;0.80;99.90;;;;;;5072330;28;20056;-73
2021/12/24 02:07:29;;;;;;;151.52;39.28;;;0.80;99.90;;;;;;5072466;28;20391;-73
2021/12/24 02:09:55;;;;;;;143.05;39.47;;;0.80;99.90;;;;;;5072078;28;20025;-73
2021/12/24 02:12:23;;;;;;;170.27;41.20;;;0.80;99.90;;;;;;5072369;28;20137;-73
2021/12/24 02:14:52;;;;;;;122.25;37.30;;;0.80;99.90;;;;;;5072845;28;20078;-73
2021/12/24 02:28:35;;;;;;;150.25;38.33;;;0.80;99.90;;;;;;5074565;28;20082;-73
2021/12/24 02:31:01;;;;;;;120.20;36.60;;;0.80;99.90;;;;;;5080469;28;20471;-73
2021/12/24 02:33:27;;;;;;;128.65;40.25;;;0.90;99.90;;;;;;5087038;28;20395;-73
2021/12/24 02:35:53;;;;;;;132.77;39.55;;;0.90;99.90;;;;;;5085198;28;20036;-73
2021/12/24 02:38:18;;;;;;;228.93;45.90;;;0.90;99.90;;;;;;5072963;28;20021;-73
2021/12/24 02:40:44;;;;;;;286.13;45.63;;;0.80;99.90;;;;;;5076179;28;20036;-72
2021/12/24 02:43:14;;;;;;;220.07;43.70;;;0.80;99.90;;;;;;5073018;28;20028;-72
2021/12/24 02:45:42;;;;;;;226.68;44.30;;;0.80;99.90;;;;;;5077968;28;20039;-72
2021/12/24 02:56:08;;;;;;;148.18;40.78;;;0.90;99.90;;;;;;5083351;28;20043;-72
2021/12/24 02:58:46;;;;;;;214.60;41.88;;;0.90;99.90;;;;;;5092606;28;20029;-72
2021/12/24 03:01:14;;;;;;;233.77;42.78;;;0.80;99.90;;;;;;5092780;28;20483;-72
2021/12/24 03:03:39;;;;;;;326.90;48.35;;;0.80;99.90;;;;;;5080122;28;20055;-72
2021/12/24 03:06:06;;;;;;;109.95;40.28;;;0.70;99.90;;;;;;5054598;28;20029;-72
2021/12/24 03:08:32;;;;;;;206.43;43.70;;;0.80;99.90;;;;;;5054439;28;20446;-72
2021/12/24 03:10:59;;;;;;;176.93;43.63;;;0.80;99.90;;;;;;5071897;28;20380;-73
2021/12/24 03:13:26;;;;;;;247.45;47.22;;;0.80;99.90;;;;;;5072450;28;20021;-73
2021/12/24 03:15:55;;;;;;;142.27;42.53;;;0.80;99.90;;;;;;5072261;28;20496;-72
2021/12/24 03:18:26;;;;;;;261.10;49.20;;;0.80;99.90;;;;;;5072733;28;20027;-73
2021/12/24 03:21:00;;;;;;;321.00;53.65;;;0.80;99.90;;;;;;5072504;28;20029;-73
2021/12/24 03:26:06;;;;;;;222.23;47.08;;;0.90;99.90;;;;;;5076533;28;20032;-72
2021/12/24 03:28:32;;;;;;;226.07;53.90;;;0.90;99.90;;;;;;5075798;28;20078;-72
2021/12/24 03:30:58;;;;;;;133.23;43.40;;;0.90;99.90;;;;;;5075734;28;20025;-73
2021/12/24 03:33:24;;;;;;;310.25;54.47;;;0.90;99.90;;;;;;5076052;28;20051;-73
2021/12/24 03:35:49;;;;;;;251.05;54.63;;;0.90;99.90;;;;;;5075779;28;20044;-73
2021/12/24 03:38:15;;;;;;;278.02;54.35;;;0.90;99.90;;;;;;5076123;28;20031;-73
2021/12/24 03:40:40;;;;;;;311.75;57.53;;;0.90;99.90;;;;;;5057746;28;20021;-73
2021/12/24 03:43:06;;;;;;;309.42;60.55;;;0.90;99.90;;;;;;5075907;28;20051;-72
2021/12/24 03:45:48;;;;;;;224.75;53.88;;;0.90;99.90;;;;;;5075886;28;20028;-73
2021/12/24 03:48:22;;;;;;;193.90;53.63;;;0.90;99.90;;;;;;5075976;28;20365;-73
2021/12/24 03:51:17;;;;;;;260.48;60.42;;;0.80;99.90;;;;;;5075746;28;20031;-73
2021/12/24 03:56:28;;;;;;;278.35;61.78;;;0.80;99.90;;;;;;5075459;28;20032;-72
2021/12/24 03:58:54;;;;;;;251.00;61.83;;;0.80;99.90;;;;;;5075157;28;20029;-72
2021/12/24 04:01:19;;;;;;;196.40;58.30;;;0.80;99.90;;;;;;5075384;28;20070;-72
2021/12/24 04:03:45;;;;;;;203.60;59.33;;;0.80;99.90;;;;;;5057267;28;20021;-72
2021/12/24 04:06:11;;;;;;;222.95;62.75;;;0.80;99.90;;;;;;5075199;28;20480;-72
2021/12/24 04:08:36;;;;;;;225.68;62.08;;;0.80;99.90;;;;;;5075038;28;20024;-72
2021/12/24 04:11:03;;;;;;;209.75;63.03;;;0.80;99.90;;;;;;5077256;28;20395;-72
2021/12/24 04:13:28;;;;;;;193.27;63.50;;;0.80;99.90;;;;;;5075284;28;20111;-72
2021/12/24 04:15:54;;;;;;;200.07;63.25;;;0.80;99.90;;;;;;5075015;28;20060;-72
2021/12/24 04:26:24;;;;;;;234.43;64.38;;;0.80;99.90;;;;;;5086761;28;20032;-72
2021/12/24 04:28:49;;;;;;;238.70;67.15;;;0.80;99.90;;;;;;5074639;28;20396;-72
2021/12/24 04:31:16;;;;;;;201.45;64.13;;;0.70;99.90;;;;;;5076821;28;20073;-72
2021/12/24 04:33:47;;;;;;;210.75;63.88;;;0.70;99.90;;;;;;5076291;28;20029;-72
2021/12/24 05:03:28;;;;;;;;;;;0.70;99.90;;;;;;5074508;28;20032;-72
2021/12/24 05:06:06;;;;;;;203.23;60.92;;;0.70;99.90;;;;;;5074045;28;19977;-72
2021/12/24 05:08:40;;;;;;;268.13;65.75;;;0.70;99.90;;;;;;5074366;28;20492;-73
2021/12/24 05:11:10;;;;;;;254.95;63.15;;;0.80;99.90;;;;;;5083903;28;20032;-72
2021/12/24 05:13:37;;;;;;;251.98;60.15;;;0.70;99.90;;;;;;5094267;28;20110;-72
2021/12/24 05:21:34;;;;;;;185.85;51.63;;;0.70;99.90;;;;;;5073801;28;20089;-73
2021/12/24 05:24:01;;;;;;;216.07;54.72;;;0.70;99.90;;;;;;5068911;28;20071;-72
2021/12/24 05:26:27;;;;;;;203.57;55.90;;;0.60;99.90;;;;;;5088958;28;20032;-72
2021/12/24 05:28:53;;;;;;;190.65;52.95;;;0.60;99.90;;;;;;5073578;28;20021;-72
2021/12/24 05:31:20;;;;;;;210.07;53.78;;;0.60;99.90;;;;;;5073525;28;20029;-72
2021/12/24 05:33:45;;;;;;;202.77;55.88;;;0.60;99.90;;;;;;5077704;28;20502;-72
2021/12/24 05:36:11;;;;;;;199.35;53.22;;;0.50;99.90;;;;;;5094054;28;20052;-72
2021/12/24 05:38:37;;;;;;;193.98;52.08;;;0.50;99.90;;;;;;5093928;28;20073;-72
2021/12/24 05:41:03;;;;;;;204.75;51.83;;;0.50;99.90;;;;;;5084725;28;20064;-72
2021/12/24 05:43:28;;;;;;;177.55;50.45;;;0.50;99.90;;;;;;5073674;28;20036;-72
2021/12/24 05:45:54;;;;;;;194.73;51.38;;;0.60;99.90;;;;;;5073310;28;20434;-72
2021/12/24 05:48:20;;;;;;;196.30;52.08;;;0.60;99.90;;;;;;5073771;28;20056;-72
2021/12/24 05:50:45;;;;;;;193.30;53.00;;;0.60;99.90;;;;;;5073247;28;20373;-72
2021/12/24 05:53:11;;;;;;;205.38;51.70;;;0.60;99.90;;;;;;5084449;28;20032;-72
2021/12/24 05:55:36;;;;;;;214.38;52.80;;;0.50;99.90;;;;;;5093731;28;20024;-72
2021/12/24 05:58:06;;;;;;;190.60;51.38;;;0.60;99.90;;;;;;5092075;28;20027;-73
2021/12/24 06:00:32;;;;;;;233.90;55.08;;;0.60;99.90;;;;;;5113050;22;20096;-68
2021/12/24 06:02:57;;;;;;;205.63;52.10;;;0.60;99.90;;;;;;5078232;28;20020;-68
2021/12/24 06:05:23;;;;;;;201.50;52.22;;;0.50;99.90;;;;;;5093285;28;20039;-68
2021/12/24 06:07:48;;;;;;;194.82;49.97;;;0.50;99.90;;;;;;5088742;28;20016;-68
2021/12/24 06:10:14;;;;;;;191.68;51.50;;;0.50;99.90;;;;;;5093321;28;20497;-69
2021/12/24 06:12:40;;;;;;;197.95;51.58;;;0.60;99.90;;;;;;5093276;28;20039;-68
2021/12/24 06:15:06;;;;;;;166.80;47.83;;;0.50;99.90;;;;;;5093232;28;20391;-68
2021/12/24 06:17:33;;;;;;;185.52;49.03;;;0.60;99.90;;;;;;5070013;28;20039;-68
2021/12/24 06:19:59;;;;;;;154.82;45.33;;;0.60;99.90;;;;;;5072938;28;20035;-68
2021/12/24 06:22:25;;;;;;;151.57;43.92;;;0.60;99.90;;;;;;5072800;28;20020;-68
2021/12/24 06:24:50;;;;;;;160.15;43.03;;;0.60;99.90;;;;;;5090341;28;20032;-68
2021/12/24 06:27:16;;;;;;;143.02;42.88;;;0.60;99.90;;;;;;5093118;28;20036;-69
2021/12/24 06:29:41;;;;;;;160.40;46.08;;;0.60;99.90;;;;;;5085252;28;20029;-68
2021/12/24 06:32:07;;;;;;;151.93;43.88;;;0.60;99.90;;;;;;5079558;28;20053;-68
2021/12/24 06:34:33;;;;;;;154.05;40.13;;;0.60;99.90;;;;;;5076520;28;20083;-68
2021/12/24 06:36:59;;;;;;;139.15;40.15;;;0.60;99.90;;;;;;5072873;28;20472;-69
2021/12/24 06:39:25;;;;;;;144.40;40.47;;;0.60;99.90;;;;;;5073008;28;20020;-68
2021/12/24 06:41:50;;;;;;;158.75;43.67;;;0.60;99.90;;;;;;5072744;28;20024;-68
2021/12/24 06:44:16;;;;;;;167.23;44.92;;;0.60;99.90;;;;;;5072784;28;20028;-68
2021/12/24 06:46:43;;;;;;;138.18;44.42;;;0.60;99.90;;;;;;5072998;28;20029;-69
2021/12/24 06:49:10;;;;;;;179.23;48.70;;;0.70;99.90;;;;;;5072799;28;20388;-69
2021/12/24 06:51:36;;;;;;;163.25;48.55;;;0.70;99.90;;;;;;5072656;28;20081;-68
2021/12/24 06:54:02;;;;;;;153.48;48.28;;;0.80;99.90;;;;;;5072969;28;20481;-68
2021/12/24 06:56:27;;;;;;;181.73;47.95;;;0.70;99.90;;;;;;5072349;28;20021;-68
2021/12/24 06:58:53;;;;;;;189.02;49.95;;;0.70;99.90;;;;;;5075701;28;20031;-69
2021/12/24 07:01:19;;;;;;;178.43;48.83;;;0.70;99.90;;;;;;5080807;28;20028;-68
2021/12/24 07:03:45;;;;;;;203.48;52.92;;;0.70;99.90;;;;;;5093993;28;20479;-68
2021/12/24 07:06:11;;;;;;;182.30;49.40;;;0.60;99.90;;;;;;5084036;28;20442;-68
2021/12/24 07:08:36;;;;;;;203.95;51.78;;;0.60;99.90;;;;;;5076322;28;20055;-68
2021/12/24 07:11:03;;;;;;;208.25;51.40;;;0.60;99.90;;;;;;5078443;28;20059;-68
2021/12/24 07:13:29;;;;;;;195.80;51.67;;;0.50;99.90;;;;;;5076123;28;20035;-68
2021/12/24 07:15:55;;;;;;;198.93;51.45;;;0.50;99.90;;;;;;5097073;28;20024;-68
2021/12/24 07:18:21;;;;;;;184.38;51.50;;;0.50;99.90;;;;;;5098491;28;20042;-68
2021/12/24 07:20:47;;;;;;;189.20;51.58;;;0.40;99.90;;;;;;5096563;28;20081;-68
2021/12/24 07:23:13;;;;;;;191.88;48.78;;;0.50;99.90;;;;;;5096500;28;20036;-68
2021/12/24 07:25:38;;;;;;;173.40;46.50;;;0.50;99.90;;;;;;5090893;28;20032;-67
2021/12/24 07:28:04;;;;;;;203.15;50.72;;;0.50;99.90;;;;;;5075796;28;20046;-68
2021/12/24 07:30:30;;;;;;;188.52;50.58;;;0.40;99.90;;;;;;5075661;28;20045;-68
2021/12/24 07:32:56;;;;;;;205.70;51.88;;;0.40;99.90;;;;;;5075793;28;20012;-68
2021/12/24 07:35:22;;;;;;;200.98;50.15;;;0.50;99.90;;;;;;5076849;28;20051;-69
2021/12/24 07:37:48;;;;;;;194.02;50.03;;;0.40;99.90;;;;;;5075876;28;20055;-68
2021/12/24 07:40:16;;;;;;;187.50;48.70;;;0.50;99.90;;;;;;5075231;28;20572;-69
2021/12/24 07:42:43;;;;;;;184.75;47.60;;;0.50;99.90;;;;;;5078057;28;20028;-69
2021/12/24 07:45:10;;;;;;;182.18;47.60;;;0.50;99.90;;;;;;5091481;28;20094;-68
2021/12/24 07:47:40;;;;;;;170.40;46.15;;;0.50;99.90;;;;;;5093177;28;20044;-68
2021/12/24 07:52:55;;;;;;;162.70;47.40;;;0.50;99.90;;;;;;5075720;28;20052;-68
2021/12/24 07:55:20;;;;;;;197.85;49.33;;;0.50;99.90;;;;;;5091779;28;20031;-68
2021/12/24 07:57:49;;;;;;;183.15;46.25;;;0.50;99.90;;;;;;5095614;28;20024;-68
2021/12/24 08:00:16;;;;;;;209.95;50.83;;;0.50;99.90;;;;;;5061838;28;20067;-69
2021/12/24 08:02:42;;;;;;;180.77;47.75;;;0.60;99.90;;;;;;5057357;28;20036;-68
2021/12/24 08:05:08;;;;;;;192.70;50.80;;;0.60;99.90;;;;;;5088720;28;20101;-68
2021/12/24 08:07:33;;;;;;;193.80;51.75;;;0.60;99.90;;;;;;5094042;28;20036;-68
2021/12/24 08:09:59;;;;;;;237.77;54.20;;;0.60;99.90;;;;;;5094114;28;20074;-68
2021/12/24 08:12:24;;;;;;;244.70;56.75;;;0.50;99.90;;;;;;5095340;28;20460;-68
2021/12/24 08:14:50;;;;;;;226.68;54.17;;;0.60;99.90;;;;;;5075237;28;20021;-68
2021/12/24 08:17:16;;;;;;;246.85;54.33;;;0.50;99.90;;;;;;5074940;28;20020;-68
2021/12/24 08:19:42;;;;;;;230.10;54.17;;;0.50;99.90;;;;;;5074420;28;20484;-68
2021/12/24 08:22:08;;;;;;;236.55;57.55;;;0.50;99.90;;;;;;5073745;28;20051;-68
2021/12/24 08:24:34;;;;;;;263.50;57.67;;;0.50;99.90;;;;;;5077527;28;20035;-68
2021/12/24 08:26:59;;;;;;;227.80;54.38;;;0.50;99.90;;;;;;5074139;28;20391;-68
2021/12/24 08:29:25;;;;;;;221.65;52.33;;;0.50;99.90;;;;;;5074749;28;20036;-67
2021/12/24 08:31:52;;;;;;;199.80;51.60;;;0.50;99.90;;;;;;5074194;28;20425;-68
2021/12/24 08:34:19;;;;;;;213.75;51.88;;;0.50;99.90;;;;;;5075622;28;20024;-68
2021/12/24 08:36:47;;;;;;;198.07;52.28;;;0.50;99.90;;;;;;5074199;28;20380;-68
2021/12/24 08:39:12;;;;;;;197.88;50.00;;;0.50;99.90;;;;;;5074628;28;20039;-69
2021/12/24 08:41:38;;;;;;;181.25;47.70;;;0.50;99.90;;;;;;5074899;28;20653;-68
2021/12/24 08:44:05;;;;;;;214.95;52.88;;;0.60;99.90;;;;;;5074069;28;20111;-68
2021/12/24 08:46:30;;;;;;;174.18;46.63;;;0.60;99.90;;;;;;5073759;28;20013;-68
2021/12/24 08:48:56;;;;;;;197.40;49.97;;;0.60;99.90;;;;;;5073762;28;20017;-68
2021/12/24 08:51:22;;;;;;;220.40;51.75;;;0.60;99.90;;;;;;5073924;28;20068;-68
2021/12/24 08:53:48;;;;;;;229.93;55.72;;;0.70;99.90;;;;;;5055693;28;20107;-67
2021/12/24 08:56:13;;;;;;;217.52;53.70;;;0.70;99.90;;;;;;5075819;28;20027;-68
2021/12/24 08:58:39;;;;;;;243.88;60.47;;;0.70;99.90;;;;;;5073717;28;20028;-68
2021/12/24 09:01:06;;;;;;;225.05;60.65;;;0.70;99.90;;;;;;5073660;28;20067;-68
2021/12/24 09:03:32;;;;;;;224.85;56.45;;;0.70;99.90;;;;;;5073373;28;20369;-68
2021/12/24 09:05:58;;;;;;;208.60;52.20;;;0.80;99.90;;;;;;5073625;28;20035;-68
2021/12/24 09:08:24;;;;;;;181.05;49.08;;;0.70;99.90;;;;;;5073470;28;20035;-68
2021/12/24 09:10:49;;;;;;;222.20;53.65;;;0.80;99.90;;;;;;5073539;28;20029;-69
2021/12/24 09:13:15;;;;;;;193.20;51.03;;;0.80;99.90;;;;;;5074024;28;20100;-69
2021/12/24 09:15:41;;;;;;;196.27;48.05;;;0.70;99.90;;;;;;5056107;28;20040;-69
2021/12/24 09:18:07;;;;;;;185.60;49.83;;;0.80;99.90;;;;;;5073888;28;20032;-69
2021/12/24 09:20:42;;;;;;;203.75;52.83;;;0.80;99.90;;;;;;5086772;28;20115;-69
2021/12/24 09:23:09;;;;;;;174.70;48.42;;;0.80;99.90;;;;;;5086493;28;20032;-69
2021/12/24 09:25:35;;;;;;;203.65;60.13;;;0.80;99.90;;;;;;5081829;28;20115;-69
2021/12/24 09:28:01;;;;;;;177.07;48.80;;;0.90;99.90;;;;;;5094011;28;20032;-70
2021/12/24 09:30:28;;;;;;;160.73;51.00;;;0.90;99.90;;;;;;5092605;28;20070;-69
2021/12/24 09:32:54;;;;;;;155.60;46.78;;;1.00;99.90;;;;;;5093525;28;20050;-70
2021/12/24 09:35:21;;;;;;;152.63;44.85;;;1.00;99.90;;;;;;5088139;28;20468;-69
2021/12/24 09:37:47;;;;;;;149.07;41.28;;;1.10;99.90;;;;;;5073510;28;20032;-70
2021/12/24 09:40:14;;;;;;;281.00;81.90;;;1.10;99.90;;;;;;5077010;28;20020;-70
2021/12/24 09:42:41;;;;;;;208.70;57.25;;;1.10;99.90;;;;;;5094270;28;20031;-70
2021/12/24 09:45:09;;;;;;;234.68;61.40;;;1.10;99.90;;;;;;5072716;28;20059;-70
2021/12/24 09:47:35;;;;;;;204.30;56.00;;;1.10;99.90;;;;;;5073640;28;20033;-70
2021/12/24 09:50:01;;;;;;;249.95;64.55;;;1.10;99.90;;;;;;5073865;28;20491;-72
2021/12/24 09:52:27;;;;;;;171.93;53.53;;;1.00;99.90;;;;;;5093778;28;20099;-71
2021/12/24 09:54:53;;;;;;;191.40;50.88;;;1.20;99.90;;;;;;5093779;28;20487;-70
2021/12/24 09:57:19;;;;;;;173.73;47.88;;;1.20;99.90;;;;;;5073437;28;20048;-69
2021/12/24 09:59:45;;;;;;;189.23;52.33;;;1.30;99.90;;;;;;5073013;28;20123;-69
2021/12/24 10:02:19;;;;;;;196.93;51.20;;;1.30;99.90;;;;;;5091052;28;20028;-70
2021/12/24 10:04:46;;;;;;;201.35;58.83;;;1.30;99.90;;;;;;5093946;28;20152;-70
2021/12/24 10:07:16;;;;;;;204.30;60.67;;;1.20;99.90;;;;;;5075334;28;20036;-70
2021/12/24 10:09:49;;;;;;;201.40;54.25;;;1.20;99.90;;;;;;5072989;28;20020;-70
2021/12/24 10:12:20;;;;;;;195.60;53.07;;;1.20;99.90;;;;;;5072895;28;20039;-69
2021/12/24 10:14:51;;;;;;;185.98;54.20;;;1.20;99.90;;;;;;5074218;28;20305;-70
2021/12/24 10:17:23;;;;;;;198.02;50.88;;;1.20;99.90;;;;;;5072154;28;20028;-69
2021/12/24 10:19:53;;;;;;;220.77;52.92;;;1.20;99.90;;;;;;5072214;28;20029;-69
2021/12/24 10:22:20;;;;;;;194.48;51.42;;;1.10;99.90;;;;;;5054505;28;20437;-70
2021/12/24 10:25:11;;;;;;;176.98;50.13;;;0.90;99.90;;;;;;5080198;28;20025;-70
2021/12/24 10:27:38;;;;;;;183.68;48.28;;;0.90;99.90;;;;;;5072277;28;20102;-70
2021/12/24 10:30:27;;;;;;;174.20;49.72;;;1.00;99.90;;;;;;5073461;28;20027;-69
2021/12/24 10:32:55;;;;;;;169.30;47.42;;;1.00;99.90;;;;;;5087524;28;20380;-69
2021/12/24 10:35:23;;;;;;;132.52;39.40;;;1.00;99.90;;;;;;5078992;28;20016;-69
2021/12/24 10:38:17;;;;;;;121.07;36.88;;;1.00;99.90;;;;;;5079025;28;20012;-69
2021/12/24 10:40:53;;;;;;;105.55;34.95;;;1.00;99.90;;;;;;5094678;28;20487;-69
2021/12/24 10:43:30;;;;;;;104.50;33.30;;;1.00;99.90;;;;;;5088035;28;20024;-69
2021/12/24 10:46:13;;;;;;;104.85;33.15;;;0.90;99.90;;;;;;5076192;28;20036;-68
2021/12/24 10:48:48;;;;;;;87.25;31.80;;;0.90;99.90;;;;;;5082694;28;20078;-69
2021/12/24 10:51:31;;;;;;;96.40;30.02;;;0.90;99.90;;;;;;5078246;28;20492;-69
2021/12/24 10:54:05;;;;;;;99.97;31.30;;;0.90;99.90;;;;;;5072536;28;20360;-69
2021/12/24 10:56:31;;;;;;;85.75;27.92;;;0.80;99.90;;;;;;5076543;28;20086;-69
2021/12/24 10:58:56;;;;;;;64.00;22.52;;;0.80;99.90;;;;;;5076314;28;20472;-69
2021/12/24 11:01:22;;;;;;;51.13;20.85;;;0.80;99.90;;;;;;5076470;28;20040;-69
2021/12/24 11:03:49;;;;;;;43.60;19.00;;;0.70;99.90;;;;;;5076415;28;20038;-69
2021/12/24 11:06:15;;;;;;;42.90;19.27;;;0.70;99.90;;;;;;5076944;28;20024;-69
2021/12/24 11:08:41;;;;;;;56.35;21.48;;;0.70;99.90;;;;;;5076534;28;20029;-69
2021/12/24 11:11:11;;;;;;;55.25;21.15;;;0.70;99.90;;;;;;5076302;28;20074;-68
2021/12/24 11:13:40;;;;;;;55.75;20.25;;;0.60;99.90;;;;;;5094074;28;20020;-69
2021/12/24 11:16:07;;;;;;;49.90;20.48;;;0.60;99.90;;;;;;5096491;28;20477;-69
2021/12/24 11:18:39;;;;;;;47.03;19.90;;;0.60;99.90;;;;;;5096396;28;20036;-69
2021/12/24 11:21:10;;;;;;;52.30;20.50;;;0.60;99.90;;;;;;5096342;28;20105;-69
2021/12/24 11:23:38;;;;;;;55.83;20.27;;;0.60;99.90;;;;;;5096547;28;20031;-69
2021/12/24 11:26:06;;;;;;;55.20;21.65;;;0.60;99.90;;;;;;5096277;28;20024;-69
2021/12/24 11:28:33;;;;;;;59.78;21.65;;;0.70;99.90;;;;;;5096272;28;20085;-69
2021/12/24 11:31:10;;;;;;;59.42;21.77;;;0.70;99.90;;;;;;5096228;28;20032;-69
2021/12/24 11:33:38;;;;;;;53.33;21.23;;;0.70;99.90;;;;;;5096471;28;20558;-69
2021/12/24 11:36:10;;;;;;;61.08;20.85;;;0.80;99.90;;;;;;5096358;28;20103;-69
2021/12/24 11:38:43;;;;;;;53.50;22.10;;;0.80;99.90;;;;;;5096043;28;20016;-69
2021/12/24 11:41:13;;;;;;;64.97;21.00;;;0.70;99.90;;;;;;5096043;28;20059;-69
2021/12/24 11:43:40;;;;;;;54.80;20.88;;;0.80;99.90;;;;;;5095755;28;20044;-69
2021/12/24 11:46:09;;;;;;;55.10;20.40;;;0.80;99.90;;;;;;5095916;28;20028;-69
2021/12/24 11:48:35;;;;;;;56.72;20.25;;;0.80;99.90;;;;;;5095727;28;20093;-69
2021/12/24 11:51:04;;;;;;;47.85;16.85;;;0.80;99.90;;;;;;5095619;28;20024;-69
2021/12/24 11:53:33;;;;;;;40.33;16.98;;;0.90;99.90;;;;;;5095566;28;20043;-69
2021/12/24 11:56:07;;;;;;;37.75;14.70;;;0.80;99.90;;;;;;5095677;28;20024;-69
2021/12/24 11:58:44;;;;;;;33.35;13.18;;;0.80;99.90;;;;;;5096194;28;20406;-69
2021/12/24 12:01:10;;;;;;;31.70;13.57;;;0.80;99.90;;;;;;5096020;28;20032;-69
2021/12/24 12:03:40;;;;;;;27.20;12.68;;;0.80;99.90;;;;;;5095578;28;20024;-69
2021/12/24 12:06:11;;;;;;;34.25;11.80;;;0.90;99.90;;;;;;5095529;28;20031;-69
2021/12/24 12:08:41;;;;;;;31.63;11.57;;;0.90;99.90;;;;;;5095534;28;20024;-69
2021/12/24 12:11:20;;;;;;;29.10;11.70;;;1.00;99.90;;;;;;5095559;28;20518;-69
2021/12/24 12:13:59;;;;;;;23.85;9.70;;;1.10;99.90;;;;;;5095323;28;20020;-69
2021/12/24 12:16:43;;;;;;;20.98;9.27;;;1.20;99.90;;;;;;5077232;28;20016;-69
2021/12/24 12:19:25;;;;;;;;;;;1.20;99.90;;;;;;5095836;28;20100;-69
2021/12/24 12:22:44;;;;;;;12.00;6.03;;;1.10;99.90;;;;;;5095526;28;19951;-69
2021/12/24 12:25:29;;;;;;;13.60;4.68;;;1.10;99.90;;;;;;5095495;28;20051;-68
2021/12/24 12:27:57;;;;;;;8.80;3.33;;;1.10;99.90;;;;;;5095128;28;20032;-68
2021/12/24 12:30:31;;;;;;;10.40;2.78;;;1.10;99.90;;;;;;5095145;28;20387;-68
2021/12/24 12:33:12;;;;;;;14.77;2.95;;;1.10;99.90;;;;;;5096064;28;20404;-68
2021/12/24 12:35:50;;;;;;;8.50;1.85;;;1.00;99.90;;;;;;5094872;28;20545;-69
2021/12/24 12:38:24;;;;;;;16.30;2.15;;;1.00;99.90;;;;;;5095180;28;20024;-68
2021/12/24 12:40:50;;;;;;;10.52;2.05;;;1.00;99.90;;;;;;5081915;28;20020;-69
2021/12/24 12:43:18;;;;;;;7.80;2.13;;;0.90;99.90;;;;;;5094715;28;20107;-68
2021/12/24 12:45:45;;;;;;;10.73;2.08;;;0.90;99.90;;;;;;5079749;28;20116;-69
2021/12/24 12:48:24;;;;;;;7.93;1.40;;;0.90;99.90;;;;;;5074702;28;20077;-69
2021/12/24 12:50:54;;;;;;;10.25;1.85;;;0.90;99.90;;;;;;5074516;28;20016;-69
2021/12/24 12:53:35;;;;;;;8.88;1.50;;;0.80;99.90;;;;;;5074335;28;20020;-70
2021/12/24 12:56:18;;;;;;;10.00;1.75;;;0.80;99.90;;;;;;5073806;28;20379;-69
2021/12/24 12:58:57;;;;;;;10.10;1.60;;;0.70;99.90;;;;;;5074137;28;20059;-69
2021/12/24 13:01:23;;;;;;;4.38;1.70;;;0.60;99.90;;;;;;5074099;28;20081;-69
2021/12/24 13:03:55;;;;;;;8.90;1.75;;;0.60;99.90;;;;;;5088652;28;20059;-68
2021/12/24 13:06:22;;;;;;;5.25;1.50;;;0.60;99.90;;;;;;5089084;28;20100;-69
2021/12/24 13:08:48;;;;;;;21.88;2.00;;;0.40;99.90;;;;;;5094521;28;20024;-70
2021/12/24 13:11:20;;;;;;;11.70;1.55;;;0.30;99.90;;;;;;5094261;28;20032;-69
2021/12/24 13:13:58;;;;;;;16.13;1.88;;;0.20;99.90;;;;;;5076911;28;20077;-72
2021/12/24 13:16:47;;;;;;;10.30;2.30;;;0.10;99.90;;;;;;5071419;28;20387;-70
2021/12/24 13:24:37;;;;;;;3.42;1.25;;;0.10;99.90;;;;;;5050208;28;20040;-71
2021/12/24 13:27:03;;;;;;;9.73;1.85;;;0.00;99.90;;;;;;5051425;28;20420;-70
2021/12/24 13:29:28;;;;;;;9.07;1.63;;;0.10;99.90;;;;;;5050589;28;20026;-70
2021/12/24 13:31:56;;;;;;;4.78;1.02;;;0.10;99.90;;;;;;5050710;28;20029;-68
2021/12/24 13:34:22;;;;;;;11.57;1.73;;;0.10;99.90;;;;;;5070160;28;20438;-71
2021/12/24 13:36:48;;;;;;;7.03;1.67;;;0.10;99.90;;;;;;5070203;28;20048;-69
2021/12/24 13:39:18;;;;;;;8.57;2.10;;;0.10;99.90;;;;;;5070039;28;20448;-69
2021/12/24 13:41:45;;;;;;;9.13;2.20;;;0.00;99.90;;;;;;5066009;28;20480;-70
2021/12/24 13:44:25;;;;;;;7.85;1.33;;;0.00;99.90;;;;;;5050046;28;20052;-69
2021/12/24 13:47:15;;;;;;;10.88;1.40;;;-0.10;99.90;;;;;;5049395;28;20075;-68
2021/12/24 13:55:32;;;;;;;4.38;1.05;;;-0.50;99.90;;;;;;5050352;28;20029;-68
2021/12/24 13:58:01;;;;;;;8.68;1.20;;;-0.50;99.90;;;;;;5049844;28;20021;-70
2021/12/24 14:00:29;;;;;;;23.05;5.68;;;-0.60;99.90;;;;;;5057833;28;20143;-69
2021/12/24 14:02:57;;;;;;;24.95;7.57;;;-0.70;99.90;;;;;;5065004;28;20496;-72
2021/12/24 14:05:24;;;;;;;13.30;4.45;;;-0.70;99.90;;;;;;5048419;28;20078;-69
2021/12/24 14:08:03;;;;;;;24.33;5.90;;;-0.80;99.90;;;;;;5065430;28;20029;-71
2021/12/24 14:10:28;;;;;;;20.25;6.25;;;-0.90;99.90;;;;;;5068453;28;20033;-71
2021/12/24 14:12:55;;;;;;;7.20;2.15;;;-1.00;99.90;;;;;;5069342;28;20055;-70
2021/12/24 14:15:26;;;;;;;6.53;1.45;;;-1.00;99.90;;;;;;5067955;28;20159;-71
2021/12/24 14:18:20;;;;;;;6.55;1.90;;;-1.10;99.90;;;;;;5061985;28;20020;-71
2021/12/24 14:23:34;;;;;;;15.77;3.90;;;-1.20;99.90;;;;;;5065861;28;20044;-72
2021/12/24 14:26:01;;;;;;;10.63;2.13;;;-1.30;99.90;;;;;;5064186;28;20388;-71
2021/12/24 14:28:27;;;;;;;11.70;2.80;;;-1.30;99.90;;;;;;5036275;28;20452;-72
2021/12/24 14:31:04;;;;;;;8.88;2.53;;;-1.30;99.90;;;;;;5044378;28;20037;-72